sensor_id;sensor_type;location;lat;lon;timestamp;P1;durP1;ratioP1;P2;durP2;ratioP2
7150;SDS011;3617;48.836;9.172;2022-12-15T00:01:42;42.37;;;20.67;;
7150;SDS011;3617;48.836;9.172;2022-12-15T00:04:26;40.67;;;20.03;;
7150;SDS011;3617;48.836;9.172;2022-12-15T00:07:11;42.60;;;20.20;;
7150;SDS011;3617;48.836;9.172;2022-12-15T00:09:55;39.37;;;20.13;;
7150;SDS011;3617;48.836;9.172;2022-12-15T00:12:40;38.33;;;19.43;;
7150;SDS011;3617;48.836;9.172;2022-12-15T00:15:25;42.77;;;19.67;;
7150;SDS011;3617;48.836;9.172;2022-12-15T00:18:09;38.37;;;19.07;;
7150;SDS011;3617;48.836;9.172;2022-12-15T00:20:58;41.67;;;20.30;;
7150;SDS011;3617;48.836;9.172;2022-12-15T00:23:43;39.33;;;19.60;;
7150;SDS011;3617;48.836;9.172;2022-12-15T00:26:27;40.90;;;20.93;;
7150;SDS011;3617;48.836;9.172;2022-12-15T00:29:12;36.33;;;19.50;;
7150;SDS011;3617;48.836;9.172;2022-12-15T00:31:57;39.63;;;20.07;;
7150;SDS011;3617;48.836;9.172;2022-12-15T00:34:41;39.73;;;20.70;;
7150;SDS011;3617;48.836;9.172;2022-12-15T00:37:26;40.90;;;19.70;;
7150;SDS011;3617;48.836;9.172;2022-12-15T00:40:10;38.83;;;20.07;;
7150;SDS011;3617;48.836;9.172;2022-12-15T00:42:37;42.00;;;19.60;;
7150;SDS011;3617;48.836;9.172;2022-12-15T00:45:03;42.40;;;20.70;;
7150;SDS011;3617;48.836;9.172;2022-12-15T00:47:30;36.83;;;18.97;;
7150;SDS011;3617;48.836;9.172;2022-12-15T00:49:56;37.63;;;19.07;;
7150;SDS011;3617;48.836;9.172;2022-12-15T00:52:43;38.47;;;18.37;;
7150;SDS011;3617;48.836;9.172;2022-12-15T00:55:28;39.77;;;19.43;;
7150;SDS011;3617;48.836;9.172;2022-12-15T00:58:12;43.70;;;20.47;;
7150;SDS011;3617;48.836;9.172;2022-12-15T01:00:57;39.37;;;19.77;;
7150;SDS011;3617;48.836;9.172;2022-12-15T01:03:41;40.77;;;19.70;;
7150;SDS011;3617;48.836;9.172;2022-12-15T01:06:26;38.83;;;19.17;;
7150;SDS011;3617;48.836;9.172;2022-12-15T01:09:11;37.67;;;19.33;;
7150;SDS011;3617;48.836;9.172;2022-12-15T01:11:56;41.90;;;19.47;;
7150;SDS011;3617;48.836;9.172;2022-12-15T01:14:41;39.57;;;19.07;;
7150;SDS011;3617;48.836;9.172;2022-12-15T01:17:25;35.63;;;18.77;;
7150;SDS011;3617;48.836;9.172;2022-12-15T01:20:10;39.17;;;20.37;;
7150;SDS011;3617;48.836;9.172;2022-12-15T01:22:50;38.10;;;19.73;;
7150;SDS011;3617;48.836;9.172;2022-12-15T01:25:17;41.47;;;20.03;;
7150;SDS011;3617;48.836;9.172;2022-12-15T01:27:44;38.53;;;20.83;;
7150;SDS011;3617;48.836;9.172;2022-12-15T01:30:11;45.70;;;20.50;;
7150;SDS011;3617;48.836;9.172;2022-12-15T01:32:38;39.80;;;20.20;;
7150;SDS011;3617;48.836;9.172;2022-12-15T01:35:04;40.57;;;20.33;;
7150;SDS011;3617;48.836;9.172;2022-12-15T01:37:31;46.57;;;20.70;;
7150;SDS011;3617;48.836;9.172;2022-12-15T01:39:57;45.20;;;22.30;;
7150;SDS011;3617;48.836;9.172;2022-12-15T01:42:41;41.47;;;19.93;;
7150;SDS011;3617;48.836;9.172;2022-12-15T01:48:11;38.87;;;20.50;;
7150;SDS011;3617;48.836;9.172;2022-12-15T01:50:36;43.43;;;21.00;;
7150;SDS011;3617;48.836;9.172;2022-12-15T01:53:04;41.73;;;19.83;;
7150;SDS011;3617;48.836;9.172;2022-12-15T01:55:30;39.00;;;20.73;;
7150;SDS011;3617;48.836;9.172;2022-12-15T01:57:58;39.17;;;19.50;;
7150;SDS011;3617;48.836;9.172;2022-12-15T02:00:25;43.70;;;19.93;;
7150;SDS011;3617;48.836;9.172;2022-12-15T02:02:52;48.03;;;19.37;;
7150;SDS011;3617;48.836;9.172;2022-12-15T02:05:18;37.93;;;18.93;;
7150;SDS011;3617;48.836;9.172;2022-12-15T02:07:45;44.43;;;20.23;;
7150;SDS011;3617;48.836;9.172;2022-12-15T02:10:11;46.83;;;22.47;;
7150;SDS011;3617;48.836;9.172;2022-12-15T02:12:39;39.57;;;20.40;;
7150;SDS011;3617;48.836;9.172;2022-12-15T02:17:42;41.73;;;18.40;;
7150;SDS011;3617;48.836;9.172;2022-12-15T02:20:21;40.83;;;19.37;;
7150;SDS011;3617;48.836;9.172;2022-12-15T02:23:08;38.97;;;19.60;;
7150;SDS011;3617;48.836;9.172;2022-12-15T02:33:43;39.17;;;19.47;;
7150;SDS011;3617;48.836;9.172;2022-12-15T02:36:15;38.40;;;18.83;;
7150;SDS011;3617;48.836;9.172;2022-12-15T02:38:43;36.07;;;20.03;;
7150;SDS011;3617;48.836;9.172;2022-12-15T02:44:32;37.13;;;18.70;;
7150;SDS011;3617;48.836;9.172;2022-12-15T02:55:22;39.07;;;20.53;;
7150;SDS011;3617;48.836;9.172;2022-12-15T02:59:48;41.60;;;21.17;;
7150;SDS011;3617;48.836;9.172;2022-12-15T03:02:19;41.43;;;20.20;;
7150;SDS011;3617;48.836;9.172;2022-12-15T03:04:46;43.30;;;19.87;;
7150;SDS011;3617;48.836;9.172;2022-12-15T03:07:12;40.83;;;21.37;;
7150;SDS011;3617;48.836;9.172;2022-12-15T03:09:38;43.40;;;19.97;;
7150;SDS011;3617;48.836;9.172;2022-12-15T03:12:04;41.37;;;19.73;;
7150;SDS011;3617;48.836;9.172;2022-12-15T03:14:31;44.43;;;20.27;;
7150;SDS011;3617;48.836;9.172;2022-12-15T03:16:57;42.80;;;20.33;;
7150;SDS011;3617;48.836;9.172;2022-12-15T03:19:23;38.33;;;20.47;;
7150;SDS011;3617;48.836;9.172;2022-12-15T03:21:49;41.80;;;19.67;;
7150;SDS011;3617;48.836;9.172;2022-12-15T03:24:16;44.90;;;20.60;;
7150;SDS011;3617;48.836;9.172;2022-12-15T03:26:42;42.23;;;20.90;;
7150;SDS011;3617;48.836;9.172;2022-12-15T03:29:08;41.40;;;20.10;;
7150;SDS011;3617;48.836;9.172;2022-12-15T03:31:34;41.33;;;20.30;;
7150;SDS011;3617;48.836;9.172;2022-12-15T03:34:00;38.83;;;19.87;;
7150;SDS011;3617;48.836;9.172;2022-12-15T03:36:26;44.13;;;19.60;;
7150;SDS011;3617;48.836;9.172;2022-12-15T03:38:52;43.93;;;20.67;;
7150;SDS011;3617;48.836;9.172;2022-12-15T03:41:18;41.27;;;20.20;;
7150;SDS011;3617;48.836;9.172;2022-12-15T03:43:44;40.17;;;20.30;;
7150;SDS011;3617;48.836;9.172;2022-12-15T03:46:10;41.10;;;19.77;;
7150;SDS011;3617;48.836;9.172;2022-12-15T03:48:36;40.47;;;19.60;;
7150;SDS011;3617;48.836;9.172;2022-12-15T03:51:02;43.30;;;20.23;;
7150;SDS011;3617;48.836;9.172;2022-12-15T03:53:28;38.93;;;19.87;;
7150;SDS011;3617;48.836;9.172;2022-12-15T03:55:54;37.97;;;20.07;;
7150;SDS011;3617;48.836;9.172;2022-12-15T03:58:20;39.00;;;18.90;;
7150;SDS011;3617;48.836;9.172;2022-12-15T04:00:46;38.57;;;19.37;;
7150;SDS011;3617;48.836;9.172;2022-12-15T04:03:12;44.20;;;19.33;;
7150;SDS011;3617;48.836;9.172;2022-12-15T04:05:38;38.93;;;19.83;;
7150;SDS011;3617;48.836;9.172;2022-12-15T04:08:05;44.37;;;20.53;;
7150;SDS011;3617;48.836;9.172;2022-12-15T04:10:31;41.50;;;20.00;;
7150;SDS011;3617;48.836;9.172;2022-12-15T04:12:58;44.23;;;20.13;;
7150;SDS011;3617;48.836;9.172;2022-12-15T04:15:25;41.67;;;20.50;;
7150;SDS011;3617;48.836;9.172;2022-12-15T04:17:51;45.07;;;20.03;;
7150;SDS011;3617;48.836;9.172;2022-12-15T04:20:17;41.00;;;19.20;;
7150;SDS011;3617;48.836;9.172;2022-12-15T04:22:44;43.30;;;20.67;;
7150;SDS011;3617;48.836;9.172;2022-12-15T04:25:12;42.73;;;19.63;;
7150;SDS011;3617;48.836;9.172;2022-12-15T04:27:57;40.67;;;18.73;;
7150;SDS011;3617;48.836;9.172;2022-12-15T04:30:44;37.07;;;19.70;;
7150;SDS011;3617;48.836;9.172;2022-12-15T04:33:29;37.47;;;19.80;;
7150;SDS011;3617;48.836;9.172;2022-12-15T04:36:14;41.73;;;19.53;;
7150;SDS011;3617;48.836;9.172;2022-12-15T04:38:59;40.43;;;19.10;;
7150;SDS011;3617;48.836;9.172;2022-12-15T04:41:44;46.10;;;20.50;;
7150;SDS011;3617;48.836;9.172;2022-12-15T04:44:29;42.83;;;20.90;;
7150;SDS011;3617;48.836;9.172;2022-12-15T04:47:14;48.40;;;20.73;;
7150;SDS011;3617;48.836;9.172;2022-12-15T04:49:58;44.30;;;19.70;;
7150;SDS011;3617;48.836;9.172;2022-12-15T04:52:43;43.73;;;20.10;;
7150;SDS011;3617;48.836;9.172;2022-12-15T04:55:27;40.47;;;20.10;;
7150;SDS011;3617;48.836;9.172;2022-12-15T04:58:12;40.07;;;19.87;;
7150;SDS011;3617;48.836;9.172;2022-12-15T05:00:56;44.63;;;20.03;;
7150;SDS011;3617;48.836;9.172;2022-12-15T05:03:41;46.13;;;20.13;;
7150;SDS011;3617;48.836;9.172;2022-12-15T05:06:26;42.67;;;20.13;;
7150;SDS011;3617;48.836;9.172;2022-12-15T05:09:10;45.13;;;20.03;;
7150;SDS011;3617;48.836;9.172;2022-12-15T05:11:55;46.33;;;20.47;;
7150;SDS011;3617;48.836;9.172;2022-12-15T05:14:40;51.03;;;20.80;;
7150;SDS011;3617;48.836;9.172;2022-12-15T05:17:24;45.33;;;18.80;;
7150;SDS011;3617;48.836;9.172;2022-12-15T05:20:09;43.33;;;19.10;;
7150;SDS011;3617;48.836;9.172;2022-12-15T05:22:54;50.47;;;20.63;;
7150;SDS011;3617;48.836;9.172;2022-12-15T05:25:38;42.87;;;18.80;;
7150;SDS011;3617;48.836;9.172;2022-12-15T05:28:23;45.57;;;20.43;;
7150;SDS011;3617;48.836;9.172;2022-12-15T05:31:08;41.20;;;19.17;;
7150;SDS011;3617;48.836;9.172;2022-12-15T05:33:53;41.87;;;20.03;;
7150;SDS011;3617;48.836;9.172;2022-12-15T05:36:20;42.27;;;20.20;;
7150;SDS011;3617;48.836;9.172;2022-12-15T05:38:46;38.93;;;19.03;;
7150;SDS011;3617;48.836;9.172;2022-12-15T05:41:13;49.17;;;20.80;;
7150;SDS011;3617;48.836;9.172;2022-12-15T05:43:39;51.13;;;20.10;;
7150;SDS011;3617;48.836;9.172;2022-12-15T05:46:05;45.23;;;19.80;;
7150;SDS011;3617;48.836;9.172;2022-12-15T05:48:31;42.03;;;19.57;;
7150;SDS011;3617;48.836;9.172;2022-12-15T05:51:01;45.70;;;21.30;;
7150;SDS011;3617;48.836;9.172;2022-12-15T05:53:27;44.77;;;19.50;;
7150;SDS011;3617;48.836;9.172;2022-12-15T05:55:59;39.47;;;18.27;;
7150;SDS011;3617;48.836;9.172;2022-12-15T05:58:25;42.80;;;20.83;;
7150;SDS011;3617;48.836;9.172;2022-12-15T06:00:51;45.70;;;20.70;;
7150;SDS011;3617;48.836;9.172;2022-12-15T06:03:17;37.47;;;20.17;;
7150;SDS011;3617;48.836;9.172;2022-12-15T06:05:43;62.63;;;28.60;;
7150;SDS011;3617;48.836;9.172;2022-12-15T06:08:09;48.27;;;22.57;;
7150;SDS011;3617;48.836;9.172;2022-12-15T06:10:35;70.00;;;29.73;;
7150;SDS011;3617;48.836;9.172;2022-12-15T06:13:01;57.77;;;26.30;;
7150;SDS011;3617;48.836;9.172;2022-12-15T06:15:27;91.23;;;36.53;;
7150;SDS011;3617;48.836;9.172;2022-12-15T06:17:53;149.60;;;51.07;;
7150;SDS011;3617;48.836;9.172;2022-12-15T06:20:19;132.40;;;47.43;;
7150;SDS011;3617;48.836;9.172;2022-12-15T06:22:45;111.07;;;39.47;;
7150;SDS011;3617;48.836;9.172;2022-12-15T06:25:11;65.77;;;28.40;;
7150;SDS011;3617;48.836;9.172;2022-12-15T06:27:37;47.00;;;22.93;;
7150;SDS011;3617;48.836;9.172;2022-12-15T06:30:04;59.17;;;26.47;;
7150;SDS011;3617;48.836;9.172;2022-12-15T06:32:32;48.53;;;22.93;;
7150;SDS011;3617;48.836;9.172;2022-12-15T06:34:59;42.93;;;20.10;;
7150;SDS011;3617;48.836;9.172;2022-12-15T06:37:25;42.83;;;20.13;;
7150;SDS011;3617;48.836;9.172;2022-12-15T06:39:51;40.97;;;19.60;;
7150;SDS011;3617;48.836;9.172;2022-12-15T06:42:17;49.97;;;21.07;;
7150;SDS011;3617;48.836;9.172;2022-12-15T06:44:43;43.83;;;21.20;;
7150;SDS011;3617;48.836;9.172;2022-12-15T06:47:09;44.00;;;19.63;;
7150;SDS011;3617;48.836;9.172;2022-12-15T06:49:35;47.47;;;22.13;;
7150;SDS011;3617;48.836;9.172;2022-12-15T06:52:02;50.87;;;20.60;;
7150;SDS011;3617;48.836;9.172;2022-12-15T06:54:28;53.70;;;24.90;;
7150;SDS011;3617;48.836;9.172;2022-12-15T06:56:54;53.57;;;22.87;;
7150;SDS011;3617;48.836;9.172;2022-12-15T06:59:20;52.63;;;20.80;;
7150;SDS011;3617;48.836;9.172;2022-12-15T07:01:46;51.00;;;20.63;;
7150;SDS011;3617;48.836;9.172;2022-12-15T07:04:12;50.73;;;20.87;;
7150;SDS011;3617;48.836;9.172;2022-12-15T07:06:38;50.07;;;21.40;;
7150;SDS011;3617;48.836;9.172;2022-12-15T07:09:05;51.60;;;21.80;;
7150;SDS011;3617;48.836;9.172;2022-12-15T07:11:32;54.13;;;21.63;;
7150;SDS011;3617;48.836;9.172;2022-12-15T07:13:58;46.00;;;20.07;;
7150;SDS011;3617;48.836;9.172;2022-12-15T07:16:24;43.30;;;20.33;;
7150;SDS011;3617;48.836;9.172;2022-12-15T07:18:50;47.00;;;21.50;;
7150;SDS011;3617;48.836;9.172;2022-12-15T07:21:16;49.27;;;21.10;;
7150;SDS011;3617;48.836;9.172;2022-12-15T07:23:42;44.70;;;19.43;;
7150;SDS011;3617;48.836;9.172;2022-12-15T07:26:09;42.13;;;20.07;;
7150;SDS011;3617;48.836;9.172;2022-12-15T07:28:35;42.60;;;20.30;;
7150;SDS011;3617;48.836;9.172;2022-12-15T07:31:02;47.60;;;21.37;;
7150;SDS011;3617;48.836;9.172;2022-12-15T07:33:30;50.27;;;22.37;;
7150;SDS011;3617;48.836;9.172;2022-12-15T07:35:56;42.50;;;20.37;;
7150;SDS011;3617;48.836;9.172;2022-12-15T07:38:22;45.03;;;20.80;;
7150;SDS011;3617;48.836;9.172;2022-12-15T07:40:48;44.27;;;20.67;;
7150;SDS011;3617;48.836;9.172;2022-12-15T07:43:14;47.57;;;20.93;;
7150;SDS011;3617;48.836;9.172;2022-12-15T07:45:41;57.20;;;23.97;;
7150;SDS011;3617;48.836;9.172;2022-12-15T07:48:07;63.10;;;26.93;;
7150;SDS011;3617;48.836;9.172;2022-12-15T07:50:35;57.17;;;24.17;;
7150;SDS011;3617;48.836;9.172;2022-12-15T07:53:00;50.13;;;21.43;;
7150;SDS011;3617;48.836;9.172;2022-12-15T07:55:26;50.83;;;22.03;;
7150;SDS011;3617;48.836;9.172;2022-12-15T07:57:52;48.00;;;22.50;;
7150;SDS011;3617;48.836;9.172;2022-12-15T08:00:18;45.97;;;21.47;;
7150;SDS011;3617;48.836;9.172;2022-12-15T08:02:44;46.90;;;20.63;;
7150;SDS011;3617;48.836;9.172;2022-12-15T08:05:10;41.13;;;20.57;;
7150;SDS011;3617;48.836;9.172;2022-12-15T08:07:36;45.80;;;21.57;;
7150;SDS011;3617;48.836;9.172;2022-12-15T08:10:03;44.80;;;20.00;;
7150;SDS011;3617;48.836;9.172;2022-12-15T08:12:29;41.60;;;19.30;;
7150;SDS011;3617;48.836;9.172;2022-12-15T08:14:55;36.27;;;17.97;;
7150;SDS011;3617;48.836;9.172;2022-12-15T08:17:21;44.60;;;20.70;;
7150;SDS011;3617;48.836;9.172;2022-12-15T08:19:47;50.17;;;20.30;;
7150;SDS011;3617;48.836;9.172;2022-12-15T08:22:13;45.67;;;19.83;;
7150;SDS011;3617;48.836;9.172;2022-12-15T08:24:39;46.27;;;21.20;;
7150;SDS011;3617;48.836;9.172;2022-12-15T08:27:05;43.73;;;19.43;;
7150;SDS011;3617;48.836;9.172;2022-12-15T08:29:32;40.33;;;19.03;;
7150;SDS011;3617;48.836;9.172;2022-12-15T08:31:58;38.77;;;18.63;;
7150;SDS011;3617;48.836;9.172;2022-12-15T08:34:24;37.20;;;18.83;;
7150;SDS011;3617;48.836;9.172;2022-12-15T08:36:50;49.00;;;20.13;;
7150;SDS011;3617;48.836;9.172;2022-12-15T08:39:16;39.20;;;18.60;;
7150;SDS011;3617;48.836;9.172;2022-12-15T08:41:42;44.87;;;19.40;;
7150;SDS011;3617;48.836;9.172;2022-12-15T08:44:08;42.80;;;19.10;;
7150;SDS011;3617;48.836;9.172;2022-12-15T08:46:34;35.73;;;17.60;;
7150;SDS011;3617;48.836;9.172;2022-12-15T08:49:01;38.47;;;17.03;;
7150;SDS011;3617;48.836;9.172;2022-12-15T08:51:28;39.60;;;17.80;;
7150;SDS011;3617;48.836;9.172;2022-12-15T08:53:55;35.63;;;17.10;;
7150;SDS011;3617;48.836;9.172;2022-12-15T08:56:22;41.47;;;17.53;;
7150;SDS011;3617;48.836;9.172;2022-12-15T08:58:49;38.10;;;16.77;;
7150;SDS011;3617;48.836;9.172;2022-12-15T09:01:16;39.20;;;17.67;;
7150;SDS011;3617;48.836;9.172;2022-12-15T09:03:43;39.57;;;18.87;;
7150;SDS011;3617;48.836;9.172;2022-12-15T09:06:13;40.43;;;18.80;;
7150;SDS011;3617;48.836;9.172;2022-12-15T09:08:40;44.63;;;18.37;;
7150;SDS011;3617;48.836;9.172;2022-12-15T09:11:06;40.53;;;18.47;;
7150;SDS011;3617;48.836;9.172;2022-12-15T09:13:32;34.83;;;17.53;;
7150;SDS011;3617;48.836;9.172;2022-12-15T09:16:02;37.57;;;18.20;;
7150;SDS011;3617;48.836;9.172;2022-12-15T09:18:29;44.20;;;18.57;;
7150;SDS011;3617;48.836;9.172;2022-12-15T09:20:59;37.73;;;17.93;;
7150;SDS011;3617;48.836;9.172;2022-12-15T09:23:25;35.90;;;17.00;;
7150;SDS011;3617;48.836;9.172;2022-12-15T09:25:57;33.70;;;16.70;;
7150;SDS011;3617;48.836;9.172;2022-12-15T09:28:23;38.47;;;17.00;;
7150;SDS011;3617;48.836;9.172;2022-12-15T09:30:50;38.20;;;17.80;;
7150;SDS011;3617;48.836;9.172;2022-12-15T09:33:16;36.53;;;16.80;;
7150;SDS011;3617;48.836;9.172;2022-12-15T09:35:48;31.50;;;16.47;;
7150;SDS011;3617;48.836;9.172;2022-12-15T09:38:14;40.30;;;16.57;;
7150;SDS011;3617;48.836;9.172;2022-12-15T09:40:40;38.70;;;16.90;;
7150;SDS011;3617;48.836;9.172;2022-12-15T09:43:07;41.90;;;17.73;;
7150;SDS011;3617;48.836;9.172;2022-12-15T09:45:38;33.27;;;17.57;;
7150;SDS011;3617;48.836;9.172;2022-12-15T09:48:05;36.07;;;18.53;;
7150;SDS011;3617;48.836;9.172;2022-12-15T09:50:38;40.20;;;17.03;;
7150;SDS011;3617;48.836;9.172;2022-12-15T09:53:04;35.20;;;17.17;;
7150;SDS011;3617;48.836;9.172;2022-12-15T09:55:34;35.70;;;17.37;;
7150;SDS011;3617;48.836;9.172;2022-12-15T10:07:54;40.13;;;16.97;;
7150;SDS011;3617;48.836;9.172;2022-12-15T10:10:25;31.47;;;15.80;;
7150;SDS011;3617;48.836;9.172;2022-12-15T10:12:53;41.53;;;18.10;;
7150;SDS011;3617;48.836;9.172;2022-12-15T10:15:22;37.97;;;17.20;;
7150;SDS011;3617;48.836;9.172;2022-12-15T10:17:58;35.23;;;16.33;;
7150;SDS011;3617;48.836;9.172;2022-12-15T10:20:30;33.20;;;17.27;;
7150;SDS011;3617;48.836;9.172;2022-12-15T10:22:59;34.00;;;16.43;;
7150;SDS011;3617;48.836;9.172;2022-12-15T10:25:28;33.10;;;17.13;;
7150;SDS011;3617;48.836;9.172;2022-12-15T10:30:21;40.17;;;17.50;;
7150;SDS011;3617;48.836;9.172;2022-12-15T10:32:48;36.10;;;17.10;;
7150;SDS011;3617;48.836;9.172;2022-12-15T10:35:16;32.67;;;15.70;;
7150;SDS011;3617;48.836;9.172;2022-12-15T10:37:42;38.83;;;17.67;;
7150;SDS011;3617;48.836;9.172;2022-12-15T10:40:08;36.43;;;16.87;;
7150;SDS011;3617;48.836;9.172;2022-12-15T10:42:49;34.70;;;16.60;;
7150;SDS011;3617;48.836;9.172;2022-12-15T10:45:28;34.03;;;16.90;;
7150;SDS011;3617;48.836;9.172;2022-12-15T10:47:58;42.70;;;16.10;;
7150;SDS011;3617;48.836;9.172;2022-12-15T10:50:27;31.27;;;16.63;;
7150;SDS011;3617;48.836;9.172;2022-12-15T10:52:53;33.23;;;16.07;;
7150;SDS011;3617;48.836;9.172;2022-12-15T10:57:58;35.07;;;17.27;;
7150;SDS011;3617;48.836;9.172;2022-12-15T11:00:26;35.77;;;16.63;;
7150;SDS011;3617;48.836;9.172;2022-12-15T11:02:52;37.27;;;17.67;;
7150;SDS011;3617;48.836;9.172;2022-12-15T11:05:18;35.73;;;16.03;;
7150;SDS011;3617;48.836;9.172;2022-12-15T11:07:45;34.00;;;16.80;;
7150;SDS011;3617;48.836;9.172;2022-12-15T11:10:14;33.53;;;16.50;;
7150;SDS011;3617;48.836;9.172;2022-12-15T11:12:40;36.93;;;16.67;;
7150;SDS011;3617;48.836;9.172;2022-12-15T11:17:42;32.80;;;16.80;;
7150;SDS011;3617;48.836;9.172;2022-12-15T11:20:10;31.90;;;15.90;;
7150;SDS011;3617;48.836;9.172;2022-12-15T11:22:45;36.47;;;17.83;;
7150;SDS011;3617;48.836;9.172;2022-12-15T11:27:41;31.40;;;16.10;;
7150;SDS011;3617;48.836;9.172;2022-12-15T11:30:20;33.03;;;17.93;;
7150;SDS011;3617;48.836;9.172;2022-12-15T11:32:51;36.40;;;16.67;;
7150;SDS011;3617;48.836;9.172;2022-12-15T11:35:22;30.33;;;16.43;;
7150;SDS011;3617;48.836;9.172;2022-12-15T11:38:04;33.70;;;17.60;;
7150;SDS011;3617;48.836;9.172;2022-12-15T11:40:40;32.27;;;16.50;;
7150;SDS011;3617;48.836;9.172;2022-12-15T11:48:26;34.93;;;16.93;;
7150;SDS011;3617;48.836;9.172;2022-12-15T11:50:58;34.87;;;18.07;;
7150;SDS011;3617;48.836;9.172;2022-12-15T11:56:24;37.27;;;17.70;;
7150;SDS011;3617;48.836;9.172;2022-12-15T11:58:54;34.17;;;16.50;;
7150;SDS011;3617;48.836;9.172;2022-12-15T12:06:36;30.67;;;16.47;;
7150;SDS011;3617;48.836;9.172;2022-12-15T12:11:39;29.73;;;15.90;;
7150;SDS011;3617;48.836;9.172;2022-12-15T12:14:11;34.53;;;17.00;;
7150;SDS011;3617;48.836;9.172;2022-12-15T12:19:05;32.83;;;16.97;;
7150;SDS011;3617;48.836;9.172;2022-12-15T12:21:35;30.23;;;15.30;;
7150;SDS011;3617;48.836;9.172;2022-12-15T12:24:18;30.97;;;15.47;;
7150;SDS011;3617;48.836;9.172;2022-12-15T12:26:46;34.43;;;16.20;;
7150;SDS011;3617;48.836;9.172;2022-12-15T12:29:22;30.57;;;14.90;;
7150;SDS011;3617;48.836;9.172;2022-12-15T12:37:15;32.57;;;15.47;;
7150;SDS011;3617;48.836;9.172;2022-12-15T12:39:44;27.00;;;14.27;;
7150;SDS011;3617;48.836;9.172;2022-12-15T12:42:13;29.93;;;15.43;;
7150;SDS011;3617;48.836;9.172;2022-12-15T12:44:39;29.43;;;15.17;;
7150;SDS011;3617;48.836;9.172;2022-12-15T12:47:08;29.43;;;14.67;;
7150;SDS011;3617;48.836;9.172;2022-12-15T12:49:38;28.00;;;14.80;;
7150;SDS011;3617;48.836;9.172;2022-12-15T12:52:12;29.50;;;15.73;;
7150;SDS011;3617;48.836;9.172;2022-12-15T12:54:40;33.77;;;15.83;;
7150;SDS011;3617;48.836;9.172;2022-12-15T12:59:37;31.60;;;14.77;;
7150;SDS011;3617;48.836;9.172;2022-12-15T13:04:38;29.87;;;14.77;;
7150;SDS011;3617;48.836;9.172;2022-12-15T13:07:26;37.17;;;16.47;;
7150;SDS011;3617;48.836;9.172;2022-12-15T13:12:33;31.47;;;15.90;;
7150;SDS011;3617;48.836;9.172;2022-12-15T13:15:02;32.63;;;15.20;;
7150;SDS011;3617;48.836;9.172;2022-12-15T13:17:31;29.90;;;14.47;;
7150;SDS011;3617;48.836;9.172;2022-12-15T13:22:24;28.20;;;14.57;;
7150;SDS011;3617;48.836;9.172;2022-12-15T13:24:51;29.17;;;15.33;;
7150;SDS011;3617;48.836;9.172;2022-12-15T13:27:20;36.83;;;14.07;;
7150;SDS011;3617;48.836;9.172;2022-12-15T13:29:53;29.97;;;14.40;;
7150;SDS011;3617;48.836;9.172;2022-12-15T13:35:00;34.57;;;14.70;;
7150;SDS011;3617;48.836;9.172;2022-12-15T13:40:28;31.53;;;15.47;;
7150;SDS011;3617;48.836;9.172;2022-12-15T13:43:07;25.50;;;13.57;;
7150;SDS011;3617;48.836;9.172;2022-12-15T13:48:11;37.80;;;17.07;;
7150;SDS011;3617;48.836;9.172;2022-12-15T13:53:24;32.10;;;14.87;;
7150;SDS011;3617;48.836;9.172;2022-12-15T13:55:52;29.90;;;15.67;;
7150;SDS011;3617;48.836;9.172;2022-12-15T13:58:20;27.57;;;14.20;;
7150;SDS011;3617;48.836;9.172;2022-12-15T14:00:54;31.33;;;15.37;;
7150;SDS011;3617;48.836;9.172;2022-12-15T14:03:21;39.73;;;14.93;;
7150;SDS011;3617;48.836;9.172;2022-12-15T14:05:54;31.83;;;15.47;;
7150;SDS011;3617;48.836;9.172;2022-12-15T14:08:22;30.77;;;15.53;;
7150;SDS011;3617;48.836;9.172;2022-12-15T14:10:50;34.20;;;15.17;;
7150;SDS011;3617;48.836;9.172;2022-12-15T14:13:23;29.23;;;15.10;;
7150;SDS011;3617;48.836;9.172;2022-12-15T14:15:53;31.93;;;15.47;;
7150;SDS011;3617;48.836;9.172;2022-12-15T14:20:56;26.77;;;14.13;;
7150;SDS011;3617;48.836;9.172;2022-12-15T14:23:44;31.17;;;15.07;;
7150;SDS011;3617;48.836;9.172;2022-12-15T14:26:10;31.30;;;15.47;;
7150;SDS011;3617;48.836;9.172;2022-12-15T14:28:37;32.43;;;14.93;;
7150;SDS011;3617;48.836;9.172;2022-12-15T14:31:16;33.90;;;16.07;;
7150;SDS011;3617;48.836;9.172;2022-12-15T14:33:43;29.27;;;14.97;;
7150;SDS011;3617;48.836;9.172;2022-12-15T14:36:13;31.43;;;14.80;;
7150;SDS011;3617;48.836;9.172;2022-12-15T14:38:42;31.00;;;15.33;;
7150;SDS011;3617;48.836;9.172;2022-12-15T14:41:12;32.77;;;15.50;;
7150;SDS011;3617;48.836;9.172;2022-12-15T14:43:42;36.63;;;17.53;;
7150;SDS011;3617;48.836;9.172;2022-12-15T14:46:09;31.63;;;15.43;;
7150;SDS011;3617;48.836;9.172;2022-12-15T14:48:38;30.13;;;14.17;;
7150;SDS011;3617;48.836;9.172;2022-12-15T14:51:08;30.40;;;14.33;;
7150;SDS011;3617;48.836;9.172;2022-12-15T14:53:35;30.83;;;15.57;;
7150;SDS011;3617;48.836;9.172;2022-12-15T14:58:51;36.47;;;16.40;;
7150;SDS011;3617;48.836;9.172;2022-12-15T15:01:21;27.27;;;14.07;;
7150;SDS011;3617;48.836;9.172;2022-12-15T15:03:54;32.43;;;14.20;;
7150;SDS011;3617;48.836;9.172;2022-12-15T15:06:21;34.27;;;15.67;;
7150;SDS011;3617;48.836;9.172;2022-12-15T15:08:48;29.00;;;15.03;;
7150;SDS011;3617;48.836;9.172;2022-12-15T15:13:42;23.43;;;12.33;;
7150;SDS011;3617;48.836;9.172;2022-12-15T15:16:13;29.53;;;13.17;;
7150;SDS011;3617;48.836;9.172;2022-12-15T15:18:39;26.33;;;12.90;;
7150;SDS011;3617;48.836;9.172;2022-12-15T15:21:06;25.83;;;13.40;;
7150;SDS011;3617;48.836;9.172;2022-12-15T15:23:39;29.70;;;14.03;;
7150;SDS011;3617;48.836;9.172;2022-12-15T15:26:07;28.73;;;14.07;;
7150;SDS011;3617;48.836;9.172;2022-12-15T15:28:35;30.23;;;14.97;;
7150;SDS011;3617;48.836;9.172;2022-12-15T15:31:15;24.47;;;12.60;;
7150;SDS011;3617;48.836;9.172;2022-12-15T15:33:47;28.67;;;12.80;;
7150;SDS011;3617;48.836;9.172;2022-12-15T15:36:13;25.97;;;13.87;;
7150;SDS011;3617;48.836;9.172;2022-12-15T15:38:39;26.57;;;12.20;;
7150;SDS011;3617;48.836;9.172;2022-12-15T15:41:25;27.03;;;12.27;;
7150;SDS011;3617;48.836;9.172;2022-12-15T15:43:55;23.47;;;12.37;;
7150;SDS011;3617;48.836;9.172;2022-12-15T15:46:26;25.03;;;12.33;;
7150;SDS011;3617;48.836;9.172;2022-12-15T15:48:59;25.13;;;11.87;;
7150;SDS011;3617;48.836;9.172;2022-12-15T15:51:26;23.40;;;12.47;;
7150;SDS011;3617;48.836;9.172;2022-12-15T15:54:00;21.00;;;11.07;;
7150;SDS011;3617;48.836;9.172;2022-12-15T15:56:27;22.73;;;11.83;;
7150;SDS011;3617;48.836;9.172;2022-12-15T15:58:54;22.43;;;11.10;;
7150;SDS011;3617;48.836;9.172;2022-12-15T16:01:21;25.63;;;12.00;;
7150;SDS011;3617;48.836;9.172;2022-12-15T16:03:47;22.80;;;10.70;;
7150;SDS011;3617;48.836;9.172;2022-12-15T16:06:17;25.47;;;12.97;;
7150;SDS011;3617;48.836;9.172;2022-12-15T16:08:44;22.13;;;11.33;;
7150;SDS011;3617;48.836;9.172;2022-12-15T16:11:11;26.47;;;12.33;;
7150;SDS011;3617;48.836;9.172;2022-12-15T16:13:37;23.37;;;12.50;;
7150;SDS011;3617;48.836;9.172;2022-12-15T16:16:03;22.97;;;11.43;;
7150;SDS011;3617;48.836;9.172;2022-12-15T16:18:29;21.90;;;12.07;;
7150;SDS011;3617;48.836;9.172;2022-12-15T16:20:56;23.67;;;12.67;;
7150;SDS011;3617;48.836;9.172;2022-12-15T16:23:24;24.80;;;12.40;;
7150;SDS011;3617;48.836;9.172;2022-12-15T16:25:52;27.83;;;12.93;;
7150;SDS011;3617;48.836;9.172;2022-12-15T16:28:22;19.20;;;10.80;;
7150;SDS011;3617;48.836;9.172;2022-12-15T16:30:49;23.47;;;12.40;;
7150;SDS011;3617;48.836;9.172;2022-12-15T16:33:15;23.90;;;11.20;;
7150;SDS011;3617;48.836;9.172;2022-12-15T16:35:41;28.80;;;12.47;;
7150;SDS011;3617;48.836;9.172;2022-12-15T16:38:21;22.10;;;11.67;;
7150;SDS011;3617;48.836;9.172;2022-12-15T16:40:47;23.77;;;11.73;;
7150;SDS011;3617;48.836;9.172;2022-12-15T16:43:15;21.57;;;11.93;;
7150;SDS011;3617;48.836;9.172;2022-12-15T16:45:42;24.20;;;12.20;;
7150;SDS011;3617;48.836;9.172;2022-12-15T16:48:11;22.77;;;11.57;;